sensor_id;sensor_type;location;lat;lon;timestamp;temperature;humidity
20831;DHT22;10576;53.556;9.868;2023-05-14T00:01:12;11.90;99.90
20831;DHT22;10576;53.556;9.868;2023-05-14T00:03:37;11.90;99.90
20831;DHT22;10576;53.556;9.868;2023-05-14T00:06:05;11.80;99.90
20831;DHT22;10576;53.556;9.868;2023-05-14T00:08:32;11.80;99.90
20831;DHT22;10576;53.556;9.868;2023-05-14T00:10:58;11.80;99.90
20831;DHT22;10576;53.556;9.868;2023-05-14T00:13:24;11.60;99.90
20831;DHT22;10576;53.556;9.868;2023-05-14T00:15:50;11.70;99.90
20831;DHT22;10576;53.556;9.868;2023-05-14T00:18:16;11.70;99.90
20831;DHT22;10576;53.556;9.868;2023-05-14T00:20:41;11.70;99.90
20831;DHT22;10576;53.556;9.868;2023-05-14T00:23:07;11.60;99.90
20831;DHT22;10576;53.556;9.868;2023-05-14T00:25:33;11.60;99.90
20831;DHT22;10576;53.556;9.868;2023-05-14T00:27:58;11.50;99.90
20831;DHT22;10576;53.556;9.868;2023-05-14T00:30:24;11.60;99.90
20831;DHT22;10576;53.556;9.868;2023-05-14T00:32:49;11.50;99.90
20831;DHT22;10576;53.556;9.868;2023-05-14T00:35:15;11.40;99.90
20831;DHT22;10576;53.556;9.868;2023-05-14T00:37:41;11.30;99.90
20831;DHT22;10576;53.556;9.868;2023-05-14T00:40:07;11.30;99.90
20831;DHT22;10576;53.556;9.868;2023-05-14T00:42:33;11.20;99.90
20831;DHT22;10576;53.556;9.868;2023-05-14T00:44:59;11.30;99.90
20831;DHT22;10576;53.556;9.868;2023-05-14T00:47:25;11.30;99.90
20831;DHT22;10576;53.556;9.868;2023-05-14T00:49:52;11.20;99.90
20831;DHT22;10576;53.556;9.868;2023-05-14T00:52:18;11.30;99.90
20831;DHT22;10576;53.556;9.868;2023-05-14T00:54:45;11.30;99.90
20831;DHT22;10576;53.556;9.868;2023-05-14T00:57:12;11.30;99.90
20831;DHT22;10576;53.556;9.868;2023-05-14T00:59:38;11.00;99.90
20831;DHT22;10576;53.556;9.868;2023-05-14T01:02:06;11.30;99.90
20831;DHT22;10576;53.556;9.868;2023-05-14T01:04:32;10.90;99.90
20831;DHT22;10576;53.556;9.868;2023-05-14T01:07:11;11.10;99.90
20831;DHT22;10576;53.556;9.868;2023-05-14T01:09:58;10.90;99.90
20831;DHT22;10576;53.556;9.868;2023-05-14T01:15:21;10.80;99.90
20831;DHT22;10576;53.556;9.868;2023-05-14T01:17:53;10.90;99.90
20831;DHT22;10576;53.556;9.868;2023-05-14T01:20:20;10.80;99.90
20831;DHT22;10576;53.556;9.868;2023-05-14T01:22:46;10.70;99.90
20831;DHT22;10576;53.556;9.868;2023-05-14T01:25:11;10.70;99.90
20831;DHT22;10576;53.556;9.868;2023-05-14T01:27:40;10.70;99.90
20831;DHT22;10576;53.556;9.868;2023-05-14T01:30:22;10.60;99.90
20831;DHT22;10576;53.556;9.868;2023-05-14T01:32:53;10.80;99.90
20831;DHT22;10576;53.556;9.868;2023-05-14T01:35:21;10.60;99.90
20831;DHT22;10576;53.556;9.868;2023-05-14T01:37:49;10.70;99.90
20831;DHT22;10576;53.556;9.868;2023-05-14T01:40:15;10.70;99.90
20831;DHT22;10576;53.556;9.868;2023-05-14T01:42:41;10.60;99.90
20831;DHT22;10576;53.556;9.868;2023-05-14T01:45:07;10.60;99.90
20831;DHT22;10576;53.556;9.868;2023-05-14T01:47:33;10.40;99.90
20831;DHT22;10576;53.556;9.868;2023-05-14T01:49:59;10.50;99.90
20831;DHT22;10576;53.556;9.868;2023-05-14T01:52:24;10.60;99.90
20831;DHT22;10576;53.556;9.868;2023-05-14T01:54:50;10.60;99.90
20831;DHT22;10576;53.556;9.868;2023-05-14T01:57:16;10.60;99.90
20831;DHT22;10576;53.556;9.868;2023-05-14T01:59:41;10.50;99.90
20831;DHT22;10576;53.556;9.868;2023-05-14T02:02:07;10.60;99.90
20831;DHT22;10576;53.556;9.868;2023-05-14T02:04:33;10.30;99.90
20831;DHT22;10576;53.556;9.868;2023-05-14T02:06:58;10.60;99.90
20831;DHT22;10576;53.556;9.868;2023-05-14T02:09:24;10.50;99.90
20831;DHT22;10576;53.556;9.868;2023-05-14T02:11:50;10.50;99.90
20831;DHT22;10576;53.556;9.868;2023-05-14T02:14:15;10.60;99.90
20831;DHT22;10576;53.556;9.868;2023-05-14T02:16:41;10.60;99.90
20831;DHT22;10576;53.556;9.868;2023-05-14T02:19:06;10.50;99.90
20831;DHT22;10576;53.556;9.868;2023-05-14T02:21:32;10.50;99.90
20831;DHT22;10576;53.556;9.868;2023-05-14T02:23:58;10.40;99.90
20831;DHT22;10576;53.556;9.868;2023-05-14T02:28:50;10.60;99.90
20831;DHT22;10576;53.556;9.868;2023-05-14T02:31:16;10.50;99.90
20831;DHT22;10576;53.556;9.868;2023-05-14T02:33:43;10.60;99.90
20831;DHT22;10576;53.556;9.868;2023-05-14T02:36:09;10.50;99.90
20831;DHT22;10576;53.556;9.868;2023-05-14T02:38:35;10.60;99.90
20831;DHT22;10576;53.556;9.868;2023-05-14T02:41:01;10.50;99.90
20831;DHT22;10576;53.556;9.868;2023-05-14T02:43:27;10.40;99.90
20831;DHT22;10576;53.556;9.868;2023-05-14T02:45:53;10.50;99.90
20831;DHT22;10576;53.556;9.868;2023-05-14T02:48:19;10.40;99.90
20831;DHT22;10576;53.556;9.868;2023-05-14T02:50:44;10.50;99.90
20831;DHT22;10576;53.556;9.868;2023-05-14T02:53:11;10.30;99.90
20831;DHT22;10576;53.556;9.868;2023-05-14T02:55:36;10.50;99.90
20831;DHT22;10576;53.556;9.868;2023-05-14T02:58:02;10.40;99.90
20831;DHT22;10576;53.556;9.868;2023-05-14T03:00:28;10.30;99.90
20831;DHT22;10576;53.556;9.868;2023-05-14T03:02:53;10.40;99.90
20831;DHT22;10576;53.556;9.868;2023-05-14T03:05:19;10.50;99.90
20831;DHT22;10576;53.556;9.868;2023-05-14T03:07:45;10.40;99.90
20831;DHT22;10576;53.556;9.868;2023-05-14T03:10:10;10.30;99.90
20831;DHT22;10576;53.556;9.868;2023-05-14T03:12:36;10.50;99.90
20831;DHT22;10576;53.556;9.868;2023-05-14T03:15:02;10.40;99.90
20831;DHT22;10576;53.556;9.868;2023-05-14T03:17:28;10.30;99.90
20831;DHT22;10576;53.556;9.868;2023-05-14T03:19:53;10.30;99.90
20831;DHT22;10576;53.556;9.868;2023-05-14T03:22:19;10.40;99.90
20831;DHT22;10576;53.556;9.868;2023-05-14T03:24:45;10.30;99.90
20831;DHT22;10576;53.556;9.868;2023-05-14T03:27:10;10.40;99.90
20831;DHT22;10576;53.556;9.868;2023-05-14T03:29:36;10.30;99.90
20831;DHT22;10576;53.556;9.868;2023-05-14T03:32:01;10.30;99.90
20831;DHT22;10576;53.556;9.868;2023-05-14T03:34:27;10.20;99.90
20831;DHT22;10576;53.556;9.868;2023-05-14T03:36:53;10.30;99.90
20831;DHT22;10576;53.556;9.868;2023-05-14T03:39:19;10.40;99.90
20831;DHT22;10576;53.556;9.868;2023-05-14T03:41:46;10.30;99.90
20831;DHT22;10576;53.556;9.868;2023-05-14T03:44:12;10.20;99.90
20831;DHT22;10576;53.556;9.868;2023-05-14T03:46:37;10.20;99.90
20831;DHT22;10576;53.556;9.868;2023-05-14T03:49:03;10.30;99.90
20831;DHT22;10576;53.556;9.868;2023-05-14T03:51:29;10.30;99.90
20831;DHT22;10576;53.556;9.868;2023-05-14T03:53:56;10.30;99.90
20831;DHT22;10576;53.556;9.868;2023-05-14T03:56:23;10.20;99.90
20831;DHT22;10576;53.556;9.868;2023-05-14T03:58:49;10.30;99.90
20831;DHT22;10576;53.556;9.868;2023-05-14T04:01:14;10.30;99.90
20831;DHT22;10576;53.556;9.868;2023-05-14T04:03:40;10.20;99.90
20831;DHT22;10576;53.556;9.868;2023-05-14T04:06:06;10.30;99.90
20831;DHT22;10576;53.556;9.868;2023-05-14T04:08:31;10.30;99.90
20831;DHT22;10576;53.556;9.868;2023-05-14T04:10:57;10.40;99.90
20831;DHT22;10576;53.556;9.868;2023-05-14T04:13:23;10.30;99.90
20831;DHT22;10576;53.556;9.868;2023-05-14T04:15:48;10.70;99.90
20831;DHT22;10576;53.556;9.868;2023-05-14T04:18:14;10.50;99.90
20831;DHT22;10576;53.556;9.868;2023-05-14T04:20:39;10.70;99.90
20831;DHT22;10576;53.556;9.868;2023-05-14T04:23:05;10.90;99.90
20831;DHT22;10576;53.556;9.868;2023-05-14T04:25:31;10.80;99.90
20831;DHT22;10576;53.556;9.868;2023-05-14T04:27:56;10.90;99.90
20831;DHT22;10576;53.556;9.868;2023-05-14T04:30:23;10.90;99.90
20831;DHT22;10576;53.556;9.868;2023-05-14T04:32:48;10.90;99.90
20831;DHT22;10576;53.556;9.868;2023-05-14T04:37:40;11.00;99.90
20831;DHT22;10576;53.556;9.868;2023-05-14T04:40:07;11.00;99.90
20831;DHT22;10576;53.556;9.868;2023-05-14T04:42:33;11.30;99.90
20831;DHT22;10576;53.556;9.868;2023-05-14T04:44:59;11.20;99.90
20831;DHT22;10576;53.556;9.868;2023-05-14T04:47:24;11.20;99.90
20831;DHT22;10576;53.556;9.868;2023-05-14T04:49:50;11.50;99.90
20831;DHT22;10576;53.556;9.868;2023-05-14T04:54:42;11.60;99.90
20831;DHT22;10576;53.556;9.868;2023-05-14T04:57:08;11.80;99.90
20831;DHT22;10576;53.556;9.868;2023-05-14T04:59:33;11.90;99.90
20831;DHT22;10576;53.556;9.868;2023-05-14T05:01:59;12.10;99.90
20831;DHT22;10576;53.556;9.868;2023-05-14T05:04:25;12.10;99.90
20831;DHT22;10576;53.556;9.868;2023-05-14T05:06:51;12.20;99.90
20831;DHT22;10576;53.556;9.868;2023-05-14T05:09:17;12.30;99.90
20831;DHT22;10576;53.556;9.868;2023-05-14T05:14:09;12.90;99.90
20831;DHT22;10576;53.556;9.868;2023-05-14T05:16:34;12.70;99.90
20831;DHT22;10576;53.556;9.868;2023-05-14T05:19:00;12.80;99.90
20831;DHT22;10576;53.556;9.868;2023-05-14T05:21:26;13.00;99.90
20831;DHT22;10576;53.556;9.868;2023-05-14T05:23:52;13.50;99.90
20831;DHT22;10576;53.556;9.868;2023-05-14T05:26:17;13.40;99.90
20831;DHT22;10576;53.556;9.868;2023-05-14T05:28:43;13.60;99.90
20831;DHT22;10576;53.556;9.868;2023-05-14T05:31:09;13.80;99.90
20831;DHT22;10576;53.556;9.868;2023-05-14T05:33:34;14.50;99.90
20831;DHT22;10576;53.556;9.868;2023-05-14T05:40:52;14.70;99.90
20831;DHT22;10576;53.556;9.868;2023-05-14T05:45:45;14.60;99.90
20831;DHT22;10576;53.556;9.868;2023-05-14T05:48:11;14.60;99.90
20831;DHT22;10576;53.556;9.868;2023-05-14T05:50:36;14.70;99.90
20831;DHT22;10576;53.556;9.868;2023-05-14T05:53:02;14.60;99.90
20831;DHT22;10576;53.556;9.868;2023-05-14T05:55:29;15.10;99.90
20831;DHT22;10576;53.556;9.868;2023-05-14T05:57:55;15.20;99.90
20831;DHT22;10576;53.556;9.868;2023-05-14T06:00:22;15.20;99.90
20831;DHT22;10576;53.556;9.868;2023-05-14T06:02:48;15.20;99.90
20831;DHT22;10576;53.556;9.868;2023-05-14T06:05:13;15.60;99.90
20831;DHT22;10576;53.556;9.868;2023-05-14T06:07:39;15.40;99.90
20831;DHT22;10576;53.556;9.868;2023-05-14T06:10:05;15.70;99.90
20831;DHT22;10576;53.556;9.868;2023-05-14T06:12:31;15.30;99.90
20831;DHT22;10576;53.556;9.868;2023-05-14T06:14:57;15.50;99.90
20831;DHT22;10576;53.556;9.868;2023-05-14T06:17:23;15.40;99.90
20831;DHT22;10576;53.556;9.868;2023-05-14T06:19:50;15.40;99.90
20831;DHT22;10576;53.556;9.868;2023-05-14T06:22:16;15.20;99.90
20831;DHT22;10576;53.556;9.868;2023-05-14T06:24:41;15.40;99.90
20831;DHT22;10576;53.556;9.868;2023-05-14T06:27:08;15.30;99.90
20831;DHT22;10576;53.556;9.868;2023-05-14T06:29:35;15.50;99.90
20831;DHT22;10576;53.556;9.868;2023-05-14T06:32:01;15.50;99.90
20831;DHT22;10576;53.556;9.868;2023-05-14T06:34:27;15.50;99.90
20831;DHT22;10576;53.556;9.868;2023-05-14T06:36:52;15.60;99.90
20831;DHT22;10576;53.556;9.868;2023-05-14T06:39:18;15.90;99.90
20831;DHT22;10576;53.556;9.868;2023-05-14T06:41:44;15.70;99.90
20831;DHT22;10576;53.556;9.868;2023-05-14T06:44:09;15.60;99.90
20831;DHT22;10576;53.556;9.868;2023-05-14T06:46:35;15.70;99.90
20831;DHT22;10576;53.556;9.868;2023-05-14T06:49:01;15.70;99.90
20831;DHT22;10576;53.556;9.868;2023-05-14T06:51:27;16.00;99.90
20831;DHT22;10576;53.556;9.868;2023-05-14T06:53:54;16.20;99.90
20831;DHT22;10576;53.556;9.868;2023-05-14T06:56:20;15.80;99.90
20831;DHT22;10576;53.556;9.868;2023-05-14T06:58:46;16.10;99.90
20831;DHT22;10576;53.556;9.868;2023-05-14T07:01:12;16.30;99.90
20831;DHT22;10576;53.556;9.868;2023-05-14T07:03:38;15.90;99.90
20831;DHT22;10576;53.556;9.868;2023-05-14T07:06:03;16.50;99.90
20831;DHT22;10576;53.556;9.868;2023-05-14T07:08:29;16.00;99.90
20831;DHT22;10576;53.556;9.868;2023-05-14T07:10:55;16.30;99.90
20831;DHT22;10576;53.556;9.868;2023-05-14T07:13:22;16.40;99.90
20831;DHT22;10576;53.556;9.868;2023-05-14T07:15:47;16.60;99.90
20831;DHT22;10576;53.556;9.868;2023-05-14T07:18:13;16.40;99.90
20831;DHT22;10576;53.556;9.868;2023-05-14T07:20:38;16.40;99.90
20831;DHT22;10576;53.556;9.868;2023-05-14T07:23:04;16.90;99.90
20831;DHT22;10576;53.556;9.868;2023-05-14T07:25:30;17.20;99.90
20831;DHT22;10576;53.556;9.868;2023-05-14T07:27:57;17.30;99.90
20831;DHT22;10576;53.556;9.868;2023-05-14T07:30:22;17.20;99.90
20831;DHT22;10576;53.556;9.868;2023-05-14T07:32:48;17.30;99.90
20831;DHT22;10576;53.556;9.868;2023-05-14T07:35:14;17.70;99.90
20831;DHT22;10576;53.556;9.868;2023-05-14T07:37:39;17.90;99.90
20831;DHT22;10576;53.556;9.868;2023-05-14T07:40:06;17.70;99.90
20831;DHT22;10576;53.556;9.868;2023-05-14T07:42:31;18.30;99.90
20831;DHT22;10576;53.556;9.868;2023-05-14T07:44:57;18.60;99.90
20831;DHT22;10576;53.556;9.868;2023-05-14T07:47:22;18.50;99.90
20831;DHT22;10576;53.556;9.868;2023-05-14T07:49:48;18.70;99.90
20831;DHT22;10576;53.556;9.868;2023-05-14T07:52:18;19.60;99.90
20831;DHT22;10576;53.556;9.868;2023-05-14T07:54:43;19.60;99.90
20831;DHT22;10576;53.556;9.868;2023-05-14T07:57:09;19.90;99.90
20831;DHT22;10576;53.556;9.868;2023-05-14T07:59:35;19.90;99.90
20831;DHT22;10576;53.556;9.868;2023-05-14T08:02:00;20.00;99.90
20831;DHT22;10576;53.556;9.868;2023-05-14T08:04:26;20.10;99.90
20831;DHT22;10576;53.556;9.868;2023-05-14T08:06:51;20.00;99.90
20831;DHT22;10576;53.556;9.868;2023-05-14T08:09:17;20.40;99.90
20831;DHT22;10576;53.556;9.868;2023-05-14T08:11:43;20.80;99.90
20831;DHT22;10576;53.556;9.868;2023-05-14T08:14:08;21.40;99.90
20831;DHT22;10576;53.556;9.868;2023-05-14T08:16:34;21.50;99.90
20831;DHT22;10576;53.556;9.868;2023-05-14T08:19:00;21.50;99.90
20831;DHT22;10576;53.556;9.868;2023-05-14T08:21:25;21.60;99.90
20831;DHT22;10576;53.556;9.868;2023-05-14T08:23:52;21.70;99.90
20831;DHT22;10576;53.556;9.868;2023-05-14T08:26:18;22.20;99.90
20831;DHT22;10576;53.556;9.868;2023-05-14T08:28:43;22.00;99.90
20831;DHT22;10576;53.556;9.868;2023-05-14T08:31:09;22.30;99.90
20831;DHT22;10576;53.556;9.868;2023-05-14T08:33:35;22.60;99.90
20831;DHT22;10576;53.556;9.868;2023-05-14T08:36:00;22.80;99.90
20831;DHT22;10576;53.556;9.868;2023-05-14T08:38:26;22.70;99.90
20831;DHT22;10576;53.556;9.868;2023-05-14T08:40:58;23.20;99.90
20831;DHT22;10576;53.556;9.868;2023-05-14T08:46:35;23.40;99.90
20831;DHT22;10576;53.556;9.868;2023-05-14T08:51:43;22.90;99.90
20831;DHT22;10576;53.556;9.868;2023-05-14T08:54:15;23.10;99.90
20831;DHT22;10576;53.556;9.868;2023-05-14T08:56:43;23.20;99.90
20831;DHT22;10576;53.556;9.868;2023-05-14T08:59:10;23.40;99.90
20831;DHT22;10576;53.556;9.868;2023-05-14T09:01:45;23.70;99.90
20831;DHT22;10576;53.556;9.868;2023-05-14T09:04:18;23.80;99.90
20831;DHT22;10576;53.556;9.868;2023-05-14T09:06:48;23.90;99.90
20831;DHT22;10576;53.556;9.868;2023-05-14T09:09:13;23.50;99.50
20831;DHT22;10576;53.556;9.868;2023-05-14T09:11:46;23.60;99.70
20831;DHT22;10576;53.556;9.868;2023-05-14T09:14:12;23.30;99.80
20831;DHT22;10576;53.556;9.868;2023-05-14T09:16:38;23.30;98.70
20831;DHT22;10576;53.556;9.868;2023-05-14T09:19:06;23.70;99.80
20831;DHT22;10576;53.556;9.868;2023-05-14T09:21:33;23.40;97.60
20831;DHT22;10576;53.556;9.868;2023-05-14T09:23:59;23.70;96.70
20831;DHT22;10576;53.556;9.868;2023-05-14T09:26:25;23.60;96.40
20831;DHT22;10576;53.556;9.868;2023-05-14T09:28:55;23.80;98.60
20831;DHT22;10576;53.556;9.868;2023-05-14T09:31:22;24.00;99.50
20831;DHT22;10576;53.556;9.868;2023-05-14T09:33:51;23.90;96.40
20831;DHT22;10576;53.556;9.868;2023-05-14T09:36:17;24.00;95.80
20831;DHT22;10576;53.556;9.868;2023-05-14T09:38:43;24.10;96.30
20831;DHT22;10576;53.556;9.868;2023-05-14T09:41:09;24.40;93.80
20831;DHT22;10576;53.556;9.868;2023-05-14T09:43:35;24.70;93.90
20831;DHT22;10576;53.556;9.868;2023-05-14T09:46:00;24.50;93.00
20831;DHT22;10576;53.556;9.868;2023-05-14T09:48:26;24.50;93.90
20831;DHT22;10576;53.556;9.868;2023-05-14T09:50:52;24.60;91.00
20831;DHT22;10576;53.556;9.868;2023-05-14T09:53:18;24.40;92.50
20831;DHT22;10576;53.556;9.868;2023-05-14T09:55:44;24.60;90.90
20831;DHT22;10576;53.556;9.868;2023-05-14T09:58:10;24.70;90.80
20831;DHT22;10576;53.556;9.868;2023-05-14T10:00:38;24.60;91.40
20831;DHT22;10576;53.556;9.868;2023-05-14T10:03:06;24.80;90.40
20831;DHT22;10576;53.556;9.868;2023-05-14T10:05:36;24.40;90.70
20831;DHT22;10576;53.556;9.868;2023-05-14T10:08:09;24.70;90.00
20831;DHT22;10576;53.556;9.868;2023-05-14T10:10:37;24.70;84.40
20831;DHT22;10576;53.556;9.868;2023-05-14T10:13:06;24.10;81.90
20831;DHT22;10576;53.556;9.868;2023-05-14T10:15:42;23.20;81.90
20831;DHT22;10576;53.556;9.868;2023-05-14T10:18:11;23.20;86.20
20831;DHT22;10576;53.556;9.868;2023-05-14T10:20:37;23.40;85.70
20831;DHT22;10576;53.556;9.868;2023-05-14T10:23:05;24.20;90.10
20831;DHT22;10576;53.556;9.868;2023-05-14T10:25:33;24.50;86.50
20831;DHT22;10576;53.556;9.868;2023-05-14T10:27:59;24.40;85.00
20831;DHT22;10576;53.556;9.868;2023-05-14T10:30:25;24.20;82.20
20831;DHT22;10576;53.556;9.868;2023-05-14T10:33:13;24.30;87.70
20831;DHT22;10576;53.556;9.868;2023-05-14T10:38:35;24.40;84.90
20831;DHT22;10576;53.556;9.868;2023-05-14T10:41:06;24.50;87.60
20831;DHT22;10576;53.556;9.868;2023-05-14T10:43:38;24.40;83.50
20831;DHT22;10576;53.556;9.868;2023-05-14T10:46:04;24.70;87.80
20831;DHT22;10576;53.556;9.868;2023-05-14T10:48:30;24.70;87.80
20831;DHT22;10576;53.556;9.868;2023-05-14T10:50:56;24.90;85.20
20831;DHT22;10576;53.556;9.868;2023-05-14T10:53:33;24.80;85.70
20831;DHT22;10576;53.556;9.868;2023-05-14T10:56:10;24.50;82.80
20831;DHT22;10576;53.556;9.868;2023-05-14T10:58:39;24.00;78.20
20831;DHT22;10576;53.556;9.868;2023-05-14T11:01:06;23.60;82.30
20831;DHT22;10576;53.556;9.868;2023-05-14T11:03:46;23.70;83.00
20831;DHT22;10576;53.556;9.868;2023-05-14T11:06:13;24.80;84.80
20831;DHT22;10576;53.556;9.868;2023-05-14T11:08:40;24.80;83.30
20831;DHT22;10576;53.556;9.868;2023-05-14T11:11:07;24.90;81.00
20831;DHT22;10576;53.556;9.868;2023-05-14T11:13:33;24.60;80.80
20831;DHT22;10576;53.556;9.868;2023-05-14T11:16:00;23.70;81.50
20831;DHT22;10576;53.556;9.868;2023-05-14T11:18:31;23.60;85.00
20831;DHT22;10576;53.556;9.868;2023-05-14T11:21:05;23.10;80.90
20831;DHT22;10576;53.556;9.868;2023-05-14T11:23:31;23.10;81.30
20831;DHT22;10576;53.556;9.868;2023-05-14T11:25:56;23.00;82.10
20831;DHT22;10576;53.556;9.868;2023-05-14T11:28:25;22.70;82.80
20831;DHT22;10576;53.556;9.868;2023-05-14T11:30:52;23.00;79.80
20831;DHT22;10576;53.556;9.868;2023-05-14T11:33:19;22.60;86.40
20831;DHT22;10576;53.556;9.868;2023-05-14T11:35:45;22.80;84.50
20831;DHT22;10576;53.556;9.868;2023-05-14T11:38:16;22.70;86.70
20831;DHT22;10576;53.556;9.868;2023-05-14T11:40:50;22.90;81.00
20831;DHT22;10576;53.556;9.868;2023-05-14T11:43:16;22.80;86.10
20831;DHT22;10576;53.556;9.868;2023-05-14T11:45:42;23.00;86.20
20831;DHT22;10576;53.556;9.868;2023-05-14T11:48:11;22.70;86.80
20831;DHT22;10576;53.556;9.868;2023-05-14T11:50:39;23.40;89.80
20831;DHT22;10576;53.556;9.868;2023-05-14T11:53:05;23.60;84.20
20831;DHT22;10576;53.556;9.868;2023-05-14T11:55:33;24.40;89.70
20831;DHT22;10576;53.556;9.868;2023-05-14T11:58:00;24.40;89.60
20831;DHT22;10576;53.556;9.868;2023-05-14T12:00:26;24.20;87.10
20831;DHT22;10576;53.556;9.868;2023-05-14T12:02:52;24.10;86.00
20831;DHT22;10576;53.556;9.868;2023-05-14T12:05:19;23.60;84.70
20831;DHT22;10576;53.556;9.868;2023-05-14T12:07:45;23.50;83.70
20831;DHT22;10576;53.556;9.868;2023-05-14T12:10:11;23.60;88.30
20831;DHT22;10576;53.556;9.868;2023-05-14T12:12:38;23.90;81.90
20831;DHT22;10576;53.556;9.868;2023-05-14T12:15:14;24.30;82.40
20831;DHT22;10576;53.556;9.868;2023-05-14T12:17:42;24.30;85.60
20831;DHT22;10576;53.556;9.868;2023-05-14T12:20:13;24.80;88.50
20831;DHT22;10576;53.556;9.868;2023-05-14T12:22:41;25.10;87.00
20831;DHT22;10576;53.556;9.868;2023-05-14T12:25:11;24.10;79.70
20831;DHT22;10576;53.556;9.868;2023-05-14T12:27:42;23.90;80.60
20831;DHT22;10576;53.556;9.868;2023-05-14T12:30:11;23.40;82.20
20831;DHT22;10576;53.556;9.868;2023-05-14T12:32:37;23.50;82.20
20831;DHT22;10576;53.556;9.868;2023-05-14T12:35:06;24.20;82.20
20831;DHT22;10576;53.556;9.868;2023-05-14T12:37:33;24.20;84.30
20831;DHT22;10576;53.556;9.868;2023-05-14T12:40:01;24.20;79.50
20831;DHT22;10576;53.556;9.868;2023-05-14T12:42:27;24.30;77.10
20831;DHT22;10576;53.556;9.868;2023-05-14T12:44:53;24.50;77.00
20831;DHT22;10576;53.556;9.868;2023-05-14T12:47:18;24.40;77.20
20831;DHT22;10576;53.556;9.868;2023-05-14T12:49:44;24.30;73.10
20831;DHT22;10576;53.556;9.868;2023-05-14T12:52:10;24.10;73.90
20831;DHT22;10576;53.556;9.868;2023-05-14T12:54:35;24.30;76.20
20831;DHT22;10576;53.556;9.868;2023-05-14T12:57:02;24.30;74.60
20831;DHT22;10576;53.556;9.868;2023-05-14T12:59:28;23.90;74.70
20831;DHT22;10576;53.556;9.868;2023-05-14T13:01:54;23.60;77.00
20831;DHT22;10576;53.556;9.868;2023-05-14T13:04:19;23.10;73.60
20831;DHT22;10576;53.556;9.868;2023-05-14T13:06:45;22.90;76.10
20831;DHT22;10576;53.556;9.868;2023-05-14T13:09:11;22.80;73.30
20831;DHT22;10576;53.556;9.868;2023-05-14T13:11:36;22.60;75.20
20831;DHT22;10576;53.556;9.868;2023-05-14T13:14:02;22.80;75.10
20831;DHT22;10576;53.556;9.868;2023-05-14T13:16:28;22.80;76.70
20831;DHT22;10576;53.556;9.868;2023-05-14T13:18:54;22.70;76.60
20831;DHT22;10576;53.556;9.868;2023-05-14T13:21:20;22.70;78.30
20831;DHT22;10576;53.556;9.868;2023-05-14T13:23:47;22.70;78.90
20831;DHT22;10576;53.556;9.868;2023-05-14T13:26:13;23.50;78.50
20831;DHT22;10576;53.556;9.868;2023-05-14T13:28:39;23.10;74.60
20831;DHT22;10576;53.556;9.868;2023-05-14T13:31:12;23.10;73.40
20831;DHT22;10576;53.556;9.868;2023-05-14T13:33:41;22.80;73.90
20831;DHT22;10576;53.556;9.868;2023-05-14T13:36:07;22.80;73.90
20831;DHT22;10576;53.556;9.868;2023-05-14T13:38:33;22.80;74.20
20831;DHT22;10576;53.556;9.868;2023-05-14T13:41:00;22.80;77.20
20831;DHT22;10576;53.556;9.868;2023-05-14T13:43:33;22.70;77.60
20831;DHT22;10576;53.556;9.868;2023-05-14T13:46:00;22.70;77.40
20831;DHT22;10576;53.556;9.868;2023-05-14T13:50:52;22.60;72.20
20831;DHT22;10576;53.556;9.868;2023-05-14T13:53:19;22.70;74.60
20831;DHT22;10576;53.556;9.868;2023-05-14T13:55:44;23.00;77.00
20831;DHT22;10576;53.556;9.868;2023-05-14T13:58:10;23.00;75.50
20831;DHT22;10576;53.556;9.868;2023-05-14T14:00:36;22.90;78.40
20831;DHT22;10576;53.556;9.868;2023-05-14T14:03:01;23.10;75.50
20831;DHT22;10576;53.556;9.868;2023-05-14T14:05:27;23.10;75.00
20831;DHT22;10576;53.556;9.868;2023-05-14T14:07:54;22.90;74.50
20831;DHT22;10576;53.556;9.868;2023-05-14T14:10:20;22.90;74.60
20831;DHT22;10576;53.556;9.868;2023-05-14T14:12:46;24.90;79.80
20831;DHT22;10576;53.556;9.868;2023-05-14T14:15:12;22.60;74.50
20831;DHT22;10576;53.556;9.868;2023-05-14T14:17:38;22.60;75.60
20831;DHT22;10576;53.556;9.868;2023-05-14T14:20:06;22.90;75.70
20831;DHT22;10576;53.556;9.868;2023-05-14T14:22:32;22.80;76.30
20831;DHT22;10576;53.556;9.868;2023-05-14T14:24:58;22.80;71.20
20831;DHT22;10576;53.556;9.868;2023-05-14T14:27:24;22.70;71.70
20831;DHT22;10576;53.556;9.868;2023-05-14T14:29:50;22.90;73.30
20831;DHT22;10576;53.556;9.868;2023-05-14T14:32:16;22.80;72.10
20831;DHT22;10576;53.556;9.868;2023-05-14T14:34:41;22.80;73.90
20831;DHT22;10576;53.556;9.868;2023-05-14T14:37:07;23.20;73.60
20831;DHT22;10576;53.556;9.868;2023-05-14T14:39:33;23.00;73.50
20831;DHT22;10576;53.556;9.868;2023-05-14T14:41:58;22.80;71.80
20831;DHT22;10576;53.556;9.868;2023-05-14T14:44:24;23.00;70.90
20831;DHT22;10576;53.556;9.868;2023-05-14T14:46:49;23.10;71.10
20831;DHT22;10576;53.556;9.868;2023-05-14T14:49:15;23.00;72.10
20831;DHT22;10576;53.556;9.868;2023-05-14T14:51:41;22.90;69.80
20831;DHT22;10576;53.556;9.868;2023-05-14T14:54:08;23.00;70.20
20831;DHT22;10576;53.556;9.868;2023-05-14T14:56:34;23.00;72.20
20831;DHT22;10576;53.556;9.868;2023-05-14T14:59:00;23.00;71.30
20831;DHT22;10576;53.556;9.868;2023-05-14T15:01:26;22.70;70.60
20831;DHT22;10576;53.556;9.868;2023-05-14T15:03:52;22.50;70.90
20831;DHT22;10576;53.556;9.868;2023-05-14T15:06:17;25.20;73.90
20831;DHT22;10576;53.556;9.868;2023-05-14T15:08:43;22.80;71.70
20831;DHT22;10576;53.556;9.868;2023-05-14T15:11:08;22.80;71.50
20831;DHT22;10576;53.556;9.868;2023-05-14T15:13:34;22.70;73.90
20831;DHT22;10576;53.556;9.868;2023-05-14T15:16:00;22.70;74.60
20831;DHT22;10576;53.556;9.868;2023-05-14T15:18:26;22.60;73.80
20831;DHT22;10576;53.556;9.868;2023-05-14T15:20:52;22.50;72.00
20831;DHT22;10576;53.556;9.868;2023-05-14T15:23:17;22.10;72.20
20831;DHT22;10576;53.556;9.868;2023-05-14T15:25:43;22.40;72.80
20831;DHT22;10576;53.556;9.868;2023-05-14T15:28:09;22.20;73.80
20831;DHT22;10576;53.556;9.868;2023-05-14T15:30:35;22.10;71.70
20831;DHT22;10576;53.556;9.868;2023-05-14T15:33:01;22.20;72.90
20831;DHT22;10576;53.556;9.868;2023-05-14T15:35:26;22.30;69.80
20831;DHT22;10576;53.556;9.868;2023-05-14T15:37:54;22.10;70.60
20831;DHT22;10576;53.556;9.868;2023-05-14T15:40:21;22.00;71.10
20831;DHT22;10576;53.556;9.868;2023-05-14T15:42:47;22.00;70.60
20831;DHT22;10576;53.556;9.868;2023-05-14T15:45:13;21.70;68.80
20831;DHT22;10576;53.556;9.868;2023-05-14T15:47:39;21.80;69.40
20831;DHT22;10576;53.556;9.868;2023-05-14T15:50:06;21.60;70.70
20831;DHT22;10576;53.556;9.868;2023-05-14T15:52:32;21.30;71.50
20831;DHT22;10576;53.556;9.868;2023-05-14T15:54:58;21.60;74.40
20831;DHT22;10576;53.556;9.868;2023-05-14T15:57:24;21.30;74.20